This is the latest recevied weather packets stored in our database for station/object OH2MUI. If no packets are shown the sender has not sent any weather packets the latest 1 day(s).
| Time | Temp. | Humidity | Pressure | Rain* | Wind** | Luminosity | Snow |
|---|---|---|---|---|---|---|---|
| 1778047664 | 5.56° C | 81% | 1014 hPa | 0 mm | - | - | - |
| 1778045524 | 3.89° C | 86% | 1013.4 hPa | 0 mm | - | - | - |
| 1778044378 | 3.33° C | 88% | 1013.2 hPa | 0 mm | - | - | - |
| 1778043304 | 2.78° C | 90% | 1013 hPa | 0 mm | - | - | - |
| 1778042144 | 2.22° C | 91% | 1012.9 hPa | 0 mm | - | - | - |
| 1778041030 | 1.11° C | - | - | 0 mm | - | - | - |
| 1778041024 | 1.11° C | 92% | 1012.7 hPa | 0 mm | - | - | - |
| 1778039964 | 1.11° C | 93% | 1012.5 hPa | 0 mm | - | - | - |
| 1778039959 | 1.11° C | 93% | 1012.5 hPa | 0 mm | - | - | - |
| 1778038849 | 0.56° C | 92% | 1012.3 hPa | 0 mm | - | - | - |
| 1778037809 | 0° C | 92% | 1012 hPa | 0 mm | - | - | - |
| 1778035585 | -0.56° C | 91% | - | 0 mm | - | - | - |
| 1778035579 | -0.56° C | 91% | 1011.8 hPa | 0 mm | - | - | - |
| 1778034459 | -0.56° C | 90% | 1011.6 hPa | 0 mm | - | - | - |
| 1778033459 | -0.56° C | 89% | 1011.5 hPa | 0 mm | - | - | - |
| 1778032289 | 0° C | 88% | 1011.3 hPa | 0 mm | - | - | - |
| 1778031319 | 0° C | 86% | 1011.1 hPa | 0 mm | - | - | - |
| 1778030172 | 0.56° C | 85% | 1011.1 hPa | 0 mm | - | - | - |
| 1778030164 | 0.56° C | 85% | 1011.1 hPa | 0 mm | - | - | - |
| 1778029078 | 1.11° C | 82% | 1011 hPa | 0 mm | - | - | - |
| 1778028032 | 1.67° C | 81% | 1010.8 hPa | 0 mm | - | - | - |
| 1778026909 | 1.67° C | 80% | 1010.7 hPa | 0 mm | - | - | - |
| 1778025809 | 1.67° C | 80% | 1010.6 hPa | 0 mm | - | - | - |
| 1778021494 | 2.78° C | 78% | 1010.3 hPa | 0 mm | - | - | - |
| 1778020384 | 2.78° C | 76% | 1010.2 hPa | 0 mm | - | - | - |
* Rain latest hour (hover to see other rain measurements)
** Current wind speed in m/s (hover to see current wind gust speed)